Latest Weather Observations for Bathurst Airport

IDN60801

Issued at 9:34 am EDT Sunday 1 March 2015 (issued every 30 minutes, with the page automatically refreshed every 10 minutes)

About weather observations | Map of weather stations | Latest weather observations for NSW | Other Formats
Station Details ID: 063291 Name: BATHURST AIRPORT AWS Lat: -33.41 Lon: 149.65 Height: 744.5 m
Data from the previous 72 hours. | See also: Recent months for locations in New South Wales
Date/Time
EDT
Temp
°C
App
Temp
°C
Dew
Point
Rel
Hum
%
Delta-T
°C
Wind Press
QNH
hPa
Press
MSL
hPa
Rain
since 9 am
mm
Dir
 
Spd
km/h
Gust
km/h
Spd
kts
Gust
kts
01/09:30am 23.5 21.1 15.3 60 5.1 N 22 28 12 15 1011.5 1007.8 0.0
01/09:00am 22.8 21.6 15.1 62 4.7 N 15 20 8 11 1011.4 1007.7 0.0
01/08:30am 19.7 20.3 14.3 71 3.2 N 4 7 2 4 1011.5 1007.8 0.0
01/08:00am 16.9 18.2 14.0 83 1.7 CALM 0 0 0 0 1011.3 1007.6 0.0
01/07:30am 15.6 16.8 13.8 89 1.1 CALM 0 6 0 3 1011.3 1007.6 0.0
01/07:00am 15.3 16.2 12.8 85 1.4 CALM 0 0 0 0 1010.9 1007.2 0.0
01/06:30am 15.6 16.2 11.8 78 2.1 CALM 0 0 0 0 1010.5 1006.7 0.0
01/05:30am 16.0 16.2 12.0 77 2.3 NE 2 7 1 4 1010.0 1006.3 0.0
01/05:00am 17.5 17.0 12.0 70 3.1 NNE 6 6 3 3 1009.8 1006.1 0.0
01/04:30am 16.4 16.8 12.4 77 2.3 NNE 2 6 1 3 1009.7 1006.0 0.0
01/04:00am 17.9 18.5 11.9 68 3.4 CALM 0 0 0 0 1009.8 1006.1 0.0
01/03:30am 17.4 18.0 11.9 70 3.1 CALM 0 0 0 0 1009.9 1006.2 0.0
01/03:00am 18.2 18.8 12.0 67 3.6 CALM 0 0 0 0 1010.3 1006.5 0.0
01/02:30am 18.1 18.8 12.1 68 3.4 CALM 0 0 0 0 1010.5 1006.7 0.0
01/02:00am 18.1 18.8 12.3 69 3.3 CALM 0 6 0 3 1010.7 1006.9 0.0
01/01:30am 17.9 18.3 12.4 70 3.2 ESE 2 6 1 3 1011.0 1007.3 0.0
01/01:00am 18.2 19.1 12.9 71 3.1 CALM 0 0 0 0 1011.4 1007.7 0.0
01/12:30am 18.8 19.0 13.2 70 3.3 NE 4 7 2 4 1011.6 1007.9 0.0
01/12:00am 18.8 19.8 13.2 70 3.3 CALM 0 0 0 0 1011.8 1008.0 0.0
 
Date/Time
EDT
Temp
°C
App
Temp
°C
Dew
Point
Rel
Hum
%
Delta-T
°C
Wind Press
QNH
hPa
Press
MSL
hPa
Rain
since 9 am
mm
Dir
 
Spd
km/h
Gust
km/h
Spd
kts
Gust
kts
28/11:30pm 18.3 18.0 12.7 70 3.2 N 6 9 3 5 1011.6 1007.9 0.0
28/11:00pm 18.1 17.3 13.0 72 3.0 NNE 9 11 5 6 1011.6 1007.9 0.0
28/10:30pm 17.6 15.7 11.8 69 3.3 N 13 13 7 7 1011.8 1008.0 0.0
28/10:00pm 18.4 17.2 11.7 65 3.8 NNE 9 15 5 8 1011.8 1008.0 0.0
28/09:30pm 19.1 17.8 11.4 61 4.4 NE 9 11 5 6 1011.6 1007.9 0.0
28/08:30pm 22.5 21.0 10.6 47 6.8 NE 9 11 5 6 1011.2 1007.5 0.0
28/08:00pm 21.9 21.1 11.0 50 6.2 NNE 6 7 3 4 1010.9 1007.2 0.0
28/07:30pm 23.7 22.4 11.1 45 7.3 NNE 9 9 5 5 1010.6 1006.8 0.0
28/07:00pm 26.4 25.0 9.7 35 9.6 N 7 9 4 5 1010.5 1006.7 0.0
28/06:30pm 27.6 26.1 9.0 31 10.6 N 7 11 4 6 1010.5 1006.7 0.0
28/06:00pm 27.8 27.0 8.1 29 11.1 ESE 2 11 1 6 1010.4 1006.6 0.0
28/05:30pm 28.1 27.0 8.4 29 11.1 WNW 4 11 2 6 1010.5 1006.7 0.0
28/05:00pm 28.6 26.6 8.8 29 11.3 NW 9 17 5 9 1010.6 1006.8 0.0
28/04:30pm 28.3 26.2 8.1 28 11.3 NNW 9 15 5 8 1010.7 1006.9 0.0
28/04:00pm 28.6 26.4 10.8 33 10.5 NW 13 20 7 11 1010.9 1007.2 0.0
28/03:30pm 28.6 27.0 10.3 32 10.7 WNW 9 17 5 9 1011.0 1007.3 0.0
28/03:00pm 28.4 27.0 11.0 34 10.3 W 9 20 5 11 1011.3 1007.6 0.0
28/02:30pm 26.7 25.3 10.8 37 9.3 NW 9 17 5 9 1011.9 1008.1 0.0
28/02:00pm 26.7 24.7 11.6 39 8.9 N 13 22 7 12 1012.2 1008.5 0.0
28/01:30pm 27.3 25.3 14.0 44 8.2 NW 17 22 9 12 1012.6 1008.9 0.0
28/01:00pm 25.7 23.1 13.2 46 7.5 NNW 19 24 10 13 1012.9 1009.2 0.0
28/12:30pm 25.0 22.9 13.5 48 7.0 NNW 17 22 9 12 1013.3 1009.6 0.0
28/12:00pm 23.4 23.1 15.5 61 4.9 NW 11 15 6 8 1013.5 1009.8 0.0
28/11:30am 22.9 22.9 15.2 62 4.7 NW 9 15 5 8 1013.6 1009.9 0.0
28/11:00am 21.9 22.8 15.0 65 4.2 WNW 4 7 2 4 1013.9 1010.2 0.0
28/10:30am 20.9 22.4 18.1 84 1.8 W 7 15 4 8 1014.1 1010.4 0.0
28/10:00am 18.8 21.0 16.6 87 1.4 CALM 0 0 0 0 1013.9 1010.2 0.0
28/09:30am 17.5 20.1 17.5 100 0.0 CALM 0 0 0 0 1014.0 1010.3 0.0
28/09:12am 16.6 18.1 16.6 100 0.0 WSW 4 7 2 4 1013.8 1010.1 0.0
28/09:00am 16.4 17.4 16.4 100 0.0 WSW 6 7 3 4 1013.9 1010.2 0.2
28/08:54am 16.3 17.3 16.3 100 0.0 SW 6 7 3 4 1013.8 1010.1 0.2
28/08:52am 16.2 17.1 16.2 100 0.0 SW 6 7 3 4 1013.8 1010.1 0.2
28/08:34am 16.0 16.9 16.0 100 0.0 SW 6 7 3 4 1013.8 1010.1 0.2
28/08:30am 15.9 16.5 15.9 100 0.0 SW 7 9 4 5 1013.8 1010.1 0.2
28/08:18am 15.8 16.6 15.8 100 0.0 SW 6 9 3 5 1013.7 1010.0 0.2
28/08:00am 15.5 17.3 15.5 100 0.0 CALM 0 0 0 0 1013.5 1009.8 0.2
28/07:30am 15.4 16.0 15.4 100 0.0 ESE 6 7 3 4 1013.3 1009.6 0.2
28/07:27am 15.3 15.9 15.3 100 0.0 ESE 6 7 3 4 1013.3 1009.6 0.2
28/07:00am 15.0 16.6 15.0 100 0.0 CALM 0 0 0 0 1013.2 1009.5 0.2
28/06:30am 15.1 16.0 15.1 100 0.0 ESE 4 7 2 4 1012.8 1009.1 0.2
28/06:00am 15.2 16.9 15.2 100 0.0 CALM 0 0 0 0 1012.7 1009.0 0.2
28/05:30am 15.7 17.6 15.7 100 0.0 CALM 0 0 0 0 1012.6 1008.9 0.2
28/05:00am 16.0 18.0 16.0 100 0.0 CALM 0 4 0 2 1012.3 1008.6 0.2
28/04:30am 16.0 16.9 16.0 100 0.0 SE 6 7 3 4 1012.1 1008.4 0.2
28/04:00am 16.0 16.9 16.0 100 0.0 ESE 6 7 3 4 1012.2 1008.5 0.2
28/03:30am 16.0 17.9 15.7 98 0.2 CALM 0 0 0 0 1012.3 1008.6 0.2
28/03:00am 16.6 17.2 15.3 92 0.8 ENE 6 7 3 4 1012.5 1008.8 0.2
28/02:30am 17.1 18.9 15.6 91 0.9 CALM 0 0 0 0 1012.4 1008.7 0.2
28/02:00am 17.3 19.3 16.0 92 0.8 CALM 0 0 0 0 1012.6 1008.9 0.2
28/01:30am 16.8 18.7 15.8 94 0.6 CALM 0 0 0 0 1012.8 1009.1 0.2
28/01:00am 16.9 18.1 15.8 93 0.7 NE 4 6 2 3 1013.0 1009.3 0.2
28/12:30am 17.6 18.4 15.8 89 1.1 ENE 6 7 3 4 1012.9 1009.2 0.2
28/12:00am 17.8 18.0 15.8 88 1.2 E 9 11 5 6 1013.0 1009.3 0.2
 
Date/Time
EDT
Temp
°C
App
Temp
°C
Dew
Point
Rel
Hum
%
Delta-T
°C
Wind Press
QNH
hPa
Press
MSL
hPa
Rain
since 9 am
mm
Dir
 
Spd
km/h
Gust
km/h
Spd
kts
Gust
kts
27/11:30pm 17.8 17.5 15.4 86 1.5 ENE 11 13 6 7 1013.2 1009.5 0.2
27/11:00pm 17.9 16.9 14.6 81 2.0 ENE 13 15 7 8 1013.0 1009.3 0.2
27/10:30pm 19.2 19.4 14.2 73 3.0 ENE 6 9 3 5 1013.2 1009.5 0.2
27/10:00pm 19.7 19.9 14.7 73 3.0 S 7 9 4 5 1013.0 1009.3 0.2
27/09:30pm 19.8 18.3 14.2 70 3.4 ENE 15 19 8 10 1012.6 1008.9 0.2
27/09:00pm 19.6 17.6 14.0 70 3.3 NE 17 22 9 12 1011.9 1008.1 0.2
27/08:30pm 20.2 18.2 13.9 67 3.8 ENE 17 20 9 11 1011.4 1007.7 0.2
27/08:00pm 19.8 18.0 13.3 66 3.8 NE 15 17 8 9 1011.0 1007.3 0.2
27/07:30pm 22.6 22.3 13.4 56 5.5 N 7 9 4 5 1010.9 1007.2 0.2
27/07:00pm 24.8 23.2 11.7 44 7.7 N 11 13 6 7 1010.6 1006.8 0.2
27/06:30pm 26.4 25.6 10.9 38 9.0 NNW 6 11 3 6 1010.5 1006.7 0.2
27/06:00pm 26.6 24.9 9.9 35 9.6 NW 9 15 5 8 1010.4 1006.6 0.2
27/05:30pm 26.7 24.5 9.5 34 9.8 NW 11 19 6 10 1010.4 1006.6 0.2
27/05:00pm 26.8 25.3 10.5 36 9.5 W 9 17 5 9 1010.4 1006.6 0.2
27/04:30pm 27.2 25.8 9.5 33 10.1 NNE 7 15 4 8 1010.4 1006.6 0.2
27/04:00pm 26.5 25.1 8.9 33 9.9 ESE 6 9 3 5 1010.7 1006.9 0.2
27/03:30pm 26.2 25.3 10.8 38 9.0 ENE 6 9 3 5 1011.0 1007.3 0.2
27/03:00pm 26.1 24.7 12.2 42 8.3 NW 11 17 6 9 1011.3 1007.6 0.2
27/02:30pm 26.5 24.9 13.9 45 7.7 NW 15 22 8 12 1011.8 1008.0 0.2
27/02:00pm 24.7 23.4 12.6 47 7.2 SW 11 17 6 9 1011.9 1008.1 0.2
27/01:30pm 25.5 24.7 13.0 46 7.5 NNW 9 15 5 8 1012.2 1008.5 0.2
27/01:00pm 23.9 24.1 13.2 51 6.4 SSE 4 11 2 6 1012.5 1008.8 0.2
27/12:30pm 24.2 23.8 13.1 50 6.6 NE 7 17 4 9 1012.9 1009.2 0.2
27/12:00pm 22.6 22.4 13.1 55 5.7 SSW 6 13 3 7 1013.2 1009.5 0.2
27/11:30am 22.9 22.4 13.9 57 5.4 NE 9 15 5 8 1013.5 1009.8 0.2
27/11:00am 21.9 21.3 13.5 59 5.0 ENE 9 17 5 9 1013.7 1010.0 0.2
27/10:30am 21.6 20.4 14.0 62 4.6 E 13 26 7 14 1013.7 1010.0 0.0
27/10:00am 20.4 20.1 14.5 69 3.6 SE 9 15 5 8 1013.6 1009.9 0.0
27/09:30am 19.3 19.2 13.9 71 3.2 SE 7 11 4 6 1013.8 1010.1 0.0
27/09:00am 17.9 14.7 14.2 79 2.2 NE 24 35 13 19 1013.6 1009.9 6.6
27/08:30am 17.0 15.5 14.3 84 1.6 ENE 15 24 8 13 1013.4 1009.7 6.6
27/08:00am 15.7 16.2 12.8 83 1.7 ENE 2 7 1 4 1012.8 1009.1 6.6
27/07:30am 14.1 13.6 13.9 99 0.1 SE 9 11 5 6 1012.5 1008.8 6.6
27/07:00am 13.1 12.4 13.1 100 0.0 SE 9 11 5 6 1012.1 1008.4 6.6
27/06:30am 12.7 12.3 12.5 99 0.1 SSE 6 7 3 4 1011.6 1007.9 6.6
27/06:00am 13.1 12.7 13.1 100 0.0 SSE 7 9 4 5 1011.5 1007.8 6.6
27/05:30am 13.4 12.8 13.4 100 0.0 SSE 9 11 5 6 1011.2 1007.5 6.6
27/05:00am 13.1 13.6 12.9 99 0.1 SE 2 7 1 4 1011.1 1007.4 6.6
27/04:30am 14.0 13.5 13.8 99 0.1 SSE 9 13 5 7 1011.0 1007.3 6.6
27/04:00am 14.1 13.3 13.9 99 0.1 SSE 11 15 6 8 1011.0 1007.3 6.6
27/03:30am 14.7 14.0 14.2 97 0.3 SSE 11 13 6 7 1011.2 1007.5 6.6
27/03:00am 14.7 14.3 14.2 97 0.3 SSE 9 13 5 7 1011.4 1007.7 6.6
27/02:30am 14.9 16.2 14.1 95 0.5 CALM 0 0 0 0 1011.5 1007.8 6.6
27/02:00am 15.3 16.3 13.3 88 1.2 CALM 0 0 0 0 1011.5 1007.8 6.6
27/01:30am 15.8 15.7 14.0 89 1.1 SSW 7 11 4 6 1011.9 1008.1 6.6
27/01:00am 16.4 16.2 13.7 84 1.6 ESE 7 13 4 7 1011.9 1008.1 6.6
27/12:30am 16.4 16.0 13.1 81 1.9 NE 7 11 4 6 1012.0 1008.3 6.6
27/12:00am 16.4 14.7 12.6 78 2.2 ENE 13 15 7 8 1011.9 1008.1 6.6
 
Date/Time
EDT
Temp
°C
App
Temp
°C
Dew
Point
Rel
Hum
%
Delta-T
°C
Wind Press
QNH
hPa
Press
MSL
hPa
Rain
since 9 am
mm
Dir
 
Spd
km/h
Gust
km/h
Spd
kts
Gust
kts
26/11:30pm 17.4 17.2 13.5 78 2.3 E 7 11 4 6 1011.9 1008.1 6.6
26/11:00pm 17.3 17.3 14.2 82 1.8 SSW 7 11 4 6 1012.1 1008.4 6.6
26/10:30pm 17.6 16.7 13.7 78 2.3 ENE 11 15 6 8 1012.1 1008.4 6.6
26/10:00pm 18.2 17.7 13.7 75 2.7 ENE 9 13 5 7 1011.9 1008.1 6.6
26/09:30pm 18.0 17.6 14.1 78 2.3 ESE 9 13 5 7 1011.6 1007.9 6.6
26/09:00pm 17.9 16.0 14.2 79 2.2 ENE 17 22 9 12 1011.3 1007.6 6.6
26/08:30pm 18.0 17.2 15.1 83 1.7 E 13 17 7 9 1011.0 1007.3 6.6
26/08:00pm 18.3 17.3 15.7 85 1.6 SE 15 22 8 12 1010.5 1006.7 6.6
26/07:30pm 18.2 17.8 15.3 83 1.8 E 11 13 6 7 1009.5 1005.7 6.6
26/07:00pm 18.3 18.1 15.7 85 1.6 ENE 11 13 6 7 1009.2 1005.4 6.6
26/06:30pm 18.6 17.3 15.8 84 1.7 NE 17 20 9 11 1009.3 1005.5 6.6
26/06:00pm 18.3 16.9 17.1 93 0.8 E 20 28 11 15 1009.5 1005.7 6.6
26/05:37pm 18.4 17.9 16.0 86 1.5 ESE 13 24 7 13 1009.5 1005.7 6.6
26/05:30pm 19.6 19.2 16.1 80 2.2 ESE 13 20 7 11 1009.4 1005.6 6.6
26/05:13pm 20.9 19.8 15.2 70 3.5 SSW 15 26 8 14 1009.2 1005.4 1.8
26/05:00pm 23.4 25.0 16.0 63 4.6 E 2 15 1 8 1008.6 1004.9 0.2
26/04:30pm 24.4 24.6 14.2 53 6.2 ENE 6 9 3 5 1008.2 1004.4 0.0
26/04:00pm 25.3 24.6 15.3 54 6.2 SSE 13 20 7 11 1008.9 1005.1 0.0
26/03:30pm 24.0 23.6 16.3 62 4.8 NW 13 22 7 12 1009.4 1005.6 0.0
26/03:00pm 24.0 24.3 17.0 65 4.5 NNW 11 17 6 9 1009.7 1006.0 0.0
26/02:30pm 23.6 23.2 16.1 62 4.7 NW 13 20 7 11 1010.1 1006.4 0.0
26/02:00pm 24.2 24.1 17.0 64 4.6 NNW 13 24 7 13 1010.8 1007.1 0.0
26/01:30pm 22.7 23.9 17.4 72 3.4 N 7 13 4 7 1011.3 1007.6 0.0
26/01:00pm 20.6 21.1 16.6 78 2.5 N 9 13 5 7 1011.6 1007.9 0.0
26/12:30pm 20.8 20.9 15.6 72 3.2 NNW 9 13 5 7 1012.0 1008.3 0.0
26/12:00pm 20.9 21.4 15.0 69 3.6 NNW 6 9 3 5 1012.5 1008.8 0.0
26/11:37am 20.7 21.3 15.9 74 3.0 NW 7 13 4 7 1012.7 1009.0 0.0
26/11:30am 20.5 20.8 15.1 71 3.3 NNW 7 13 4 7 1012.8 1009.1 0.0
26/11:18am 20.3 20.8 15.1 72 3.2 N 6 11 3 6 1012.9 1009.2 0.0
26/11:00am 19.9 21.0 15.5 76 2.7 NNE 4 9 2 5 1013.2 1009.5 0.0
26/10:30am 19.2 19.7 14.9 76 2.6 W 6 7 3 4 1013.3 1009.6 0.0
26/10:00am 18.2 18.7 14.9 81 2.0 N 6 11 3 6 1013.3 1009.6 0.0
26/09:54am 18.1 18.3 14.8 81 2.0 NNW 7 11 4 6 1013.3 1009.6 0.0

Other Formats:

Comma delimited format used in spreadsheet applications
http://www.bom.gov.au/fwo/IDN60801/IDN60801.94729.axf

JavaScript Object Notation format (JSON) in row-major order
http://www.bom.gov.au/fwo/IDN60801/IDN60801.94729.json